createdAt,value
2023-03-15T00:02:02.739Z,1.53
2023-03-15T00:04:32.349Z,1.43
2023-03-15T00:07:00.156Z,1.50
2023-03-15T00:09:27.980Z,2.20
2023-03-15T00:11:55.484Z,1.20
2023-03-15T00:14:23.658Z,1.67
2023-03-15T00:16:54.664Z,1.83
2023-03-15T00:19:22.115Z,1.17
2023-03-15T00:21:49.656Z,1.20
2023-03-15T00:24:17.109Z,1.13
2023-03-15T00:26:44.624Z,1.83
2023-03-15T00:29:12.167Z,2.10
2023-03-15T00:31:39.829Z,1.20
2023-03-15T00:34:08.639Z,1.67
2023-03-15T00:36:36.078Z,1.53
2023-03-15T00:39:03.955Z,1.10
2023-03-15T00:41:32.044Z,1.90
2023-03-15T00:43:59.503Z,1.17
2023-03-15T00:46:27.019Z,1.17
2023-03-15T00:48:54.514Z,1.90
2023-03-15T00:51:25.068Z,1.80
2023-03-15T00:53:54.250Z,1.47
2023-03-15T00:56:23.477Z,1.30
2023-03-15T00:58:52.810Z,2.00
2023-03-15T01:01:22.507Z,2.03
2023-03-15T01:03:50.054Z,1.53
2023-03-15T01:06:19.195Z,1.50
2023-03-15T01:08:48.503Z,1.70
2023-03-15T01:11:18.364Z,1.50
2023-03-15T01:13:45.893Z,1.73
2023-03-15T01:16:15.004Z,2.13
2023-03-15T01:18:43.932Z,1.47
2023-03-15T01:21:13.587Z,1.27
2023-03-15T01:23:41.534Z,1.30
2023-03-15T01:26:12.592Z,1.43
2023-03-15T01:28:40.331Z,1.47
2023-03-15T01:31:07.834Z,2.00
2023-03-15T01:33:35.315Z,2.40
2023-03-15T01:36:04.839Z,1.70
2023-03-15T01:38:32.506Z,1.23
2023-03-15T01:41:00.309Z,1.20
2023-03-15T01:43:31.774Z,1.13
2023-03-15T01:46:16.549Z,1.53
2023-03-15T01:48:45.711Z,0.90
2023-03-15T01:51:16.647Z,1.23
2023-03-15T01:53:47.870Z,1.50
2023-03-15T01:56:15.946Z,1.73
2023-03-15T01:58:47.359Z,1.40
2023-03-15T02:01:16.115Z,1.60
2023-03-15T02:03:46.791Z,1.60
2023-03-15T02:06:18.257Z,1.30
2023-03-15T02:08:48.076Z,1.67
2023-03-15T02:11:17.123Z,1.00
2023-03-15T02:13:46.135Z,1.47
2023-03-15T02:16:13.685Z,1.20
2023-03-15T02:18:41.202Z,1.77
2023-03-15T02:21:15.876Z,1.10
2023-03-15T02:23:45.035Z,1.97
2023-03-15T02:26:18.521Z,1.40
2023-03-15T02:28:47.502Z,1.53
2023-03-15T02:31:15.593Z,1.67
2023-03-15T02:33:45.623Z,1.17
2023-03-15T02:36:18.287Z,1.17
2023-03-15T02:38:45.926Z,1.20
2023-03-15T02:41:17.626Z,1.87
2023-03-15T02:43:45.206Z,0.93
2023-03-15T02:46:14.905Z,1.00
2023-03-15T02:48:43.362Z,1.27
2023-03-15T02:51:18.691Z,1.23
2023-03-15T02:53:46.290Z,1.67
2023-03-15T02:56:14.204Z,1.00
2023-03-15T02:58:42.095Z,1.50
2023-03-15T03:01:09.757Z,1.00
2023-03-15T03:03:38.646Z,1.27
2023-03-15T03:06:06.627Z,1.20
2023-03-15T03:08:34.150Z,1.00
2023-03-15T03:11:01.993Z,1.20
2023-03-15T03:13:29.541Z,1.53
2023-03-15T03:15:59.392Z,1.30
2023-03-15T03:18:27.475Z,1.20
2023-03-15T03:20:58.466Z,1.77
2023-03-15T03:23:26.672Z,1.50
2023-03-15T03:25:54.824Z,2.33
2023-03-15T03:28:24.069Z,1.27
2023-03-15T03:30:51.826Z,1.40
2023-03-15T03:33:19.388Z,1.80
2023-03-15T03:35:46.964Z,1.57
2023-03-15T03:38:16.539Z,1.37
2023-03-15T03:40:44.001Z,1.83
2023-03-15T03:43:11.485Z,1.50
2023-03-15T03:45:38.943Z,1.50
2023-03-15T03:48:06.708Z,1.70
2023-03-15T03:50:34.245Z,1.30
2023-03-15T03:53:01.690Z,2.10
2023-03-15T03:55:30.505Z,1.93
2023-03-15T03:57:58.017Z,1.23
2023-03-15T04:00:25.459Z,1.87
2023-03-15T04:02:54.303Z,1.50
2023-03-15T04:05:21.899Z,2.00
2023-03-15T04:07:49.370Z,1.50
2023-03-15T04:10:17.284Z,1.87
2023-03-15T04:12:46.576Z,1.90
2023-03-15T04:15:14.041Z,1.30
2023-03-15T04:17:41.522Z,1.43
2023-03-15T04:20:12.022Z,1.57
2023-03-15T04:22:39.821Z,1.83
2023-03-15T04:25:08.252Z,1.53
2023-03-15T04:27:35.726Z,1.90
2023-03-15T04:30:05.763Z,1.50
2023-03-15T04:32:33.429Z,1.50
2023-03-15T04:35:02.073Z,1.83
2023-03-15T04:37:29.608Z,1.50
2023-03-15T04:39:57.072Z,1.73
2023-03-15T04:42:26.020Z,2.00
2023-03-15T04:44:53.739Z,1.43
2023-03-15T04:47:23.591Z,1.20
2023-03-15T04:49:51.056Z,1.80
2023-03-15T04:52:18.501Z,1.70
2023-03-15T04:54:46.183Z,1.43
2023-03-15T04:57:13.644Z,1.47
2023-03-15T04:59:41.146Z,1.50
2023-03-15T05:02:08.693Z,1.30
2023-03-15T05:04:37.524Z,1.10
2023-03-15T05:07:05.020Z,1.73
2023-03-15T05:09:39.628Z,2.20
2023-03-15T05:12:07.983Z,1.90
2023-03-15T05:14:35.517Z,1.70
2023-03-15T05:17:04.010Z,2.00
2023-03-15T05:19:34.721Z,1.20
2023-03-15T05:22:04.239Z,1.70
2023-03-15T05:24:31.834Z,1.70
2023-03-15T05:26:59.304Z,2.00
2023-03-15T05:29:26.781Z,2.50
2023-03-15T05:31:54.603Z,1.77
2023-03-15T05:34:24.077Z,1.70
2023-03-15T05:36:51.757Z,1.57
2023-03-15T05:39:22.802Z,1.90
2023-03-15T05:41:50.379Z,1.90
2023-03-15T05:44:17.971Z,2.17
2023-03-15T05:46:45.422Z,1.90
2023-03-15T05:49:13.004Z,1.77
2023-03-15T05:51:40.457Z,2.00
2023-03-15T05:54:07.981Z,1.30
2023-03-15T05:56:36.839Z,1.70
2023-03-15T05:59:04.974Z,2.00
2023-03-15T06:01:32.625Z,1.70
2023-03-15T06:04:00.303Z,2.07
2023-03-15T06:06:27.816Z,1.50
2023-03-15T06:08:55.316Z,3.13
2023-03-15T06:11:22.788Z,2.53
2023-03-15T06:13:51.822Z,1.80
2023-03-15T06:16:19.490Z,2.30
2023-03-15T06:18:47.000Z,2.30
2023-03-15T06:21:14.462Z,1.70
2023-03-15T06:23:41.948Z,2.03
2023-03-15T06:26:09.665Z,3.03
2023-03-15T06:28:37.148Z,2.53
2023-03-15T06:31:10.055Z,2.50
2023-03-15T06:33:37.638Z,2.40
2023-03-15T06:36:05.719Z,2.37
2023-03-15T06:38:33.692Z,3.73
2023-03-15T06:41:01.665Z,2.67
2023-03-15T06:43:29.528Z,4.03
2023-03-15T06:45:59.772Z,3.60
2023-03-15T06:48:29.071Z,4.03
2023-03-15T06:50:56.627Z,3.80
2023-03-15T06:53:24.445Z,3.77
2023-03-15T06:55:52.286Z,3.83
2023-03-15T06:58:19.813Z,4.20
2023-03-15T07:00:48.702Z,4.60
2023-03-15T07:03:16.297Z,4.20
2023-03-15T07:05:45.526Z,4.13
2023-03-15T07:08:13.128Z,5.57
2023-03-15T07:10:40.626Z,4.70
2023-03-15T07:13:09.220Z,4.60
2023-03-15T07:15:37.947Z,4.53
2023-03-15T07:18:05.436Z,5.27
2023-03-15T07:20:33.522Z,4.47
2023-03-15T07:23:03.164Z,5.40
2023-03-15T07:25:30.622Z,5.07
2023-03-15T07:27:58.075Z,5.07
2023-03-15T07:30:25.591Z,5.57
2023-03-15T07:32:53.292Z,7.00
2023-03-15T07:35:20.870Z,5.47
2023-03-15T07:37:48.350Z,5.67
2023-03-15T07:40:17.228Z,5.83
2023-03-15T07:42:44.777Z,5.63
2023-03-15T07:45:12.837Z,5.87
2023-03-15T07:47:40.866Z,5.80
2023-03-15T07:50:09.331Z,5.60
2023-03-15T07:52:36.833Z,7.10
2023-03-15T07:55:04.796Z,5.80
2023-03-15T07:57:33.732Z,6.20
2023-03-15T08:00:01.218Z,5.87
2023-03-15T08:02:30.576Z,4.93
2023-03-15T08:04:58.768Z,5.30
2023-03-15T08:07:26.409Z,5.60
2023-03-15T08:09:53.954Z,6.80
2023-03-15T08:12:21.482Z,4.90
2023-03-15T08:14:51.346Z,6.47
2023-03-15T08:17:19.008Z,4.53
2023-03-15T08:19:46.545Z,4.67
2023-03-15T08:22:14.049Z,4.40
2023-03-15T08:24:41.541Z,4.37
2023-03-15T08:27:09.317Z,4.20
2023-03-15T08:29:37.225Z,3.83
2023-03-15T08:32:06.638Z,3.90
2023-03-15T08:34:35.051Z,3.90
2023-03-15T08:37:02.537Z,3.70
2023-03-15T08:39:30.103Z,3.37
2023-03-15T08:41:57.587Z,3.33
2023-03-15T08:44:25.130Z,3.97
2023-03-15T08:46:52.680Z,2.60
2023-03-15T08:49:21.563Z,2.97
2023-03-15T08:51:49.053Z,2.13
2023-03-15T08:54:16.606Z,2.50
2023-03-15T08:56:44.698Z,3.07
2023-03-15T08:59:19.231Z,2.70
2023-03-15T09:01:49.791Z,2.30
2023-03-15T09:04:17.367Z,2.40
2023-03-15T09:06:46.388Z,2.90
2023-03-15T09:09:17.419Z,2.77
2023-03-15T09:11:44.896Z,2.50
2023-03-15T09:14:12.421Z,2.70
2023-03-15T09:16:39.999Z,3.23
2023-03-15T09:19:07.524Z,2.80
2023-03-15T09:21:35.276Z,2.50
2023-03-15T09:24:04.296Z,3.70
2023-03-15T09:26:31.848Z,3.83
2023-03-15T09:28:59.313Z,4.00
2023-03-15T09:31:26.793Z,4.60
2023-03-15T09:33:54.329Z,3.70
2023-03-15T09:36:21.826Z,3.53
2023-03-15T09:38:49.354Z,2.70
2023-03-15T09:41:22.239Z,2.90
2023-03-15T09:44:15.209Z,3.50
2023-03-15T09:46:53.689Z,2.80
2023-03-15T09:49:31.681Z,3.80
2023-03-15T09:52:01.535Z,2.90
2023-03-15T09:54:32.098Z,3.13
2023-03-15T09:57:03.042Z,2.60
2023-03-15T09:59:33.561Z,3.20
2023-03-15T10:02:04.023Z,2.60
2023-03-15T10:04:34.560Z,2.20
2023-03-15T10:07:03.271Z,3.23
2023-03-15T10:09:34.450Z,2.40
2023-03-15T10:12:07.548Z,1.80
2023-03-15T10:14:50.461Z,2.07
2023-03-15T10:17:22.688Z,2.17
2023-03-15T10:19:51.858Z,1.93
2023-03-15T10:22:24.645Z,2.27
2023-03-15T10:24:54.828Z,1.30
2023-03-15T10:27:27.143Z,1.63
2023-03-15T10:29:56.747Z,1.40
2023-03-15T10:32:27.267Z,1.70
2023-03-15T10:34:57.372Z,2.07
2023-03-15T10:37:25.459Z,1.50
2023-03-15T10:39:56.326Z,1.63
2023-03-15T10:42:32.657Z,1.67
2023-03-15T10:45:01.014Z,1.47
2023-03-15T10:47:28.979Z,1.90
2023-03-15T10:49:57.747Z,2.00
2023-03-15T10:52:31.643Z,2.07
2023-03-15T10:55:04.389Z,1.70
2023-03-15T10:57:38.882Z,1.50
2023-03-15T11:00:19.956Z,1.50
2023-03-15T11:02:52.284Z,2.10
2023-03-15T11:05:20.707Z,1.60
2023-03-15T11:07:56.235Z,1.60
2023-03-15T11:10:25.457Z,1.47
2023-03-15T11:13:10.735Z,1.40
2023-03-15T11:15:38.512Z,1.50
2023-03-15T11:18:07.116Z,1.30
2023-03-15T11:20:37.875Z,1.83
2023-03-15T11:23:16.020Z,1.50
2023-03-15T11:25:43.540Z,1.30
2023-03-15T11:28:18.075Z,1.73
2023-03-15T11:30:48.545Z,1.60
2023-03-15T11:33:26.536Z,1.20
2023-03-15T11:35:55.022Z,1.30
2023-03-15T11:38:28.064Z,1.17
2023-03-15T11:40:57.616Z,1.43
2023-03-15T11:43:29.443Z,1.57
2023-03-15T11:45:59.644Z,1.47
2023-03-15T11:48:30.924Z,1.20
2023-03-15T11:50:59.081Z,1.40
2023-03-15T11:53:31.165Z,1.60
2023-03-15T11:56:09.469Z,1.10
2023-03-15T11:58:43.374Z,1.23
2023-03-15T12:01:12.534Z,1.50
2023-03-15T12:03:42.766Z,1.30
2023-03-15T12:06:29.836Z,1.13
2023-03-15T12:08:57.294Z,1.30
2023-03-15T12:11:39.364Z,1.00
2023-03-15T12:14:24.098Z,1.10
2023-03-15T12:16:51.603Z,1.47
2023-03-15T12:19:20.825Z,1.20
2023-03-15T12:21:51.122Z,1.10
2023-03-15T12:24:23.264Z,0.90
2023-03-15T12:26:52.374Z,1.03
2023-03-15T12:29:23.874Z,1.30
2023-03-15T12:31:55.524Z,1.97
2023-03-15T12:34:28.886Z,1.60
2023-03-15T12:36:59.158Z,1.67
2023-03-15T12:39:39.329Z,1.50
2023-03-15T12:42:08.428Z,1.80
2023-03-15T12:44:42.046Z,1.80
2023-03-15T12:47:10.602Z,1.37
2023-03-15T12:49:41.053Z,1.43
2023-03-15T12:52:27.328Z,1.87
2023-03-15T12:54:58.926Z,1.47
2023-03-15T12:57:30.181Z,1.80
2023-03-15T13:00:00.493Z,1.40
2023-03-15T13:02:42.888Z,1.33
2023-03-15T13:05:21.498Z,1.23
2023-03-15T13:07:55.864Z,1.40
2023-03-15T13:10:46.745Z,1.53
2023-03-15T13:13:31.139Z,1.00
2023-03-15T13:16:18.492Z,1.60
2023-03-15T13:18:53.280Z,1.47
2023-03-15T13:21:25.436Z,1.43
2023-03-15T13:23:53.604Z,1.07
2023-03-15T13:26:26.908Z,1.60
2023-03-15T13:28:59.068Z,1.30
2023-03-15T13:31:31.278Z,1.00
2023-03-15T13:34:08.556Z,1.53
2023-03-15T13:36:41.753Z,1.60
2023-03-15T13:39:12.993Z,1.00
2023-03-15T13:41:40.446Z,1.10
2023-03-15T13:44:17.035Z,1.50
2023-03-15T13:46:47.672Z,1.20
2023-03-15T13:49:15.260Z,1.40
2023-03-15T13:51:43.241Z,1.30
2023-03-15T13:54:16.152Z,1.43
2023-03-15T13:56:55.471Z,1.80
2023-03-15T13:59:23.802Z,1.67
2023-03-15T14:01:54.222Z,2.17
2023-03-15T14:04:23.221Z,1.80
2023-03-15T14:06:50.971Z,1.70
2023-03-15T14:09:21.448Z,1.20
2023-03-15T14:12:01.909Z,1.30
2023-03-15T14:14:31.094Z,1.57
2023-03-15T14:17:05.788Z,0.97
2023-03-15T14:19:35.255Z,1.10
2023-03-15T14:22:07.527Z,1.23
2023-03-15T14:24:37.111Z,0.90
2023-03-15T14:27:08.230Z,1.37
2023-03-15T14:29:37.130Z,1.30
2023-03-15T14:32:07.798Z,1.20
2023-03-15T14:34:37.533Z,1.70
2023-03-15T14:37:10.004Z,1.47
2023-03-15T14:39:41.871Z,2.33
2023-03-15T14:42:11.862Z,1.37
2023-03-15T14:44:39.582Z,1.80
2023-03-15T14:47:13.361Z,1.87
2023-03-15T14:49:40.945Z,2.13
2023-03-15T14:52:09.171Z,2.07
2023-03-15T14:54:36.638Z,1.70
2023-03-15T14:57:04.240Z,1.53
2023-03-15T14:59:31.710Z,1.30
2023-03-15T15:02:00.907Z,1.97
2023-03-15T15:04:33.443Z,1.30
2023-03-15T15:07:03.145Z,1.10
2023-03-15T15:09:32.004Z,1.40
2023-03-15T15:11:59.490Z,1.37
2023-03-15T15:14:26.988Z,1.30
2023-03-15T15:16:54.514Z,1.43
2023-03-15T15:19:22.037Z,1.17
2023-03-15T15:21:50.904Z,1.20
2023-03-15T15:24:21.162Z,1.07
2023-03-15T15:26:48.820Z,1.20
2023-03-15T15:29:17.586Z,1.10
2023-03-15T15:31:46.471Z,1.17
2023-03-15T15:34:14.436Z,1.33
2023-03-15T15:36:43.656Z,1.30
2023-03-15T15:39:21.720Z,1.07
2023-03-15T15:41:49.820Z,0.93
2023-03-15T15:44:19.082Z,1.13
2023-03-15T15:46:47.190Z,1.03
2023-03-15T15:49:15.041Z,1.07
2023-03-15T15:51:45.822Z,3.07
2023-03-15T15:54:17.689Z,1.20
2023-03-15T15:56:48.619Z,0.97
2023-03-15T15:59:17.630Z,0.90
2023-03-15T16:01:59.719Z,0.80
2023-03-15T16:04:28.670Z,1.10
2023-03-15T16:06:58.745Z,1.27
2023-03-15T16:09:30.056Z,0.73
2023-03-15T16:11:58.278Z,1.13
2023-03-15T16:14:26.281Z,1.90
2023-03-15T16:16:54.181Z,1.03
2023-03-15T16:19:21.883Z,0.90
2023-03-15T16:21:51.830Z,0.90
2023-03-15T16:24:24.542Z,0.87
2023-03-15T16:26:55.219Z,1.17
2023-03-15T16:29:27.228Z,0.90
2023-03-15T16:31:59.186Z,1.50
2023-03-15T16:34:34.436Z,2.00
2023-03-15T16:37:02.270Z,1.40
2023-03-15T16:39:31.615Z,1.57
2023-03-15T16:42:00.799Z,1.20
2023-03-15T16:44:28.689Z,1.47
2023-03-15T16:46:56.401Z,1.10
2023-03-15T16:49:24.063Z,1.30
2023-03-15T16:51:53.500Z,0.60
2023-03-15T16:54:38.234Z,0.80
2023-03-15T16:57:13.768Z,0.73
2023-03-15T16:59:41.457Z,1.23
2023-03-15T17:02:17.252Z,1.20
2023-03-15T17:04:45.602Z,1.00
2023-03-15T17:07:14.329Z,0.80
2023-03-15T17:09:42.240Z,1.17
2023-03-15T17:12:15.939Z,1.03
2023-03-15T17:14:43.453Z,1.00
2023-03-15T17:17:11.354Z,1.80
2023-03-15T17:19:39.082Z,1.20
2023-03-15T17:22:07.152Z,1.37
2023-03-15T17:24:34.924Z,1.40
2023-03-15T17:27:02.720Z,1.43
2023-03-15T17:29:31.728Z,1.40
2023-03-15T17:31:59.418Z,1.50
2023-03-15T17:34:27.123Z,1.93
2023-03-15T17:36:56.193Z,1.90
2023-03-15T17:39:24.027Z,1.80
2023-03-15T17:41:51.697Z,2.97
2023-03-15T17:44:19.399Z,3.40
2023-03-15T17:46:48.633Z,3.80
2023-03-15T17:49:17.727Z,5.20
2023-03-15T17:51:47.677Z,4.97
2023-03-15T17:54:16.911Z,4.80
2023-03-15T17:56:44.572Z,3.67
2023-03-15T17:59:12.801Z,3.40
2023-03-15T18:01:42.644Z,2.80
2023-03-15T18:04:12.218Z,2.57
2023-03-15T18:06:40.121Z,3.10
2023-03-15T18:09:07.778Z,3.20
2023-03-15T18:11:36.850Z,3.17
2023-03-15T18:14:04.916Z,2.27
2023-03-15T18:16:33.124Z,2.97
2023-03-15T18:19:00.826Z,2.43
2023-03-15T18:21:30.056Z,2.07
2023-03-15T18:23:57.789Z,1.50
2023-03-15T18:26:25.495Z,1.77
2023-03-15T18:28:53.196Z,1.83
2023-03-15T18:31:22.535Z,2.30
2023-03-15T18:33:50.701Z,1.80
2023-03-15T18:36:18.961Z,1.90
2023-03-15T18:38:48.109Z,1.80
2023-03-15T18:41:20.452Z,1.50
2023-03-15T18:43:49.711Z,1.83
2023-03-15T18:46:19.631Z,3.17
2023-03-15T18:48:47.509Z,1.63
2023-03-15T18:51:17.468Z,1.83
2023-03-15T18:53:45.650Z,1.83
2023-03-15T18:56:19.230Z,1.70
2023-03-15T18:58:47.240Z,2.43
2023-03-15T19:01:14.910Z,2.20
2023-03-15T19:03:43.031Z,1.80
2023-03-15T19:06:12.735Z,1.87
2023-03-15T19:08:40.918Z,1.67
2023-03-15T19:11:10.594Z,1.67
2023-03-15T19:13:39.740Z,1.77
2023-03-15T19:16:07.820Z,2.00
2023-03-15T19:18:35.603Z,2.50
2023-03-15T19:21:03.541Z,1.73
2023-03-15T19:23:31.977Z,1.70
2023-03-15T19:25:59.706Z,1.47
2023-03-15T19:28:27.504Z,2.40
2023-03-15T19:30:56.561Z,2.10
2023-03-15T19:33:24.508Z,1.90
2023-03-15T19:35:52.312Z,2.97
2023-03-15T19:38:20.113Z,2.80
2023-03-15T19:40:47.858Z,2.77
2023-03-15T19:43:16.005Z,1.63
2023-03-15T19:45:45.118Z,2.07
2023-03-15T19:48:16.442Z,2.00
2023-03-15T19:50:44.440Z,2.30
2023-03-15T19:53:12.784Z,1.80
2023-03-15T19:55:40.915Z,1.73
2023-03-15T19:58:08.608Z,1.30
2023-03-15T20:00:36.364Z,1.97
2023-03-15T20:03:04.014Z,2.20
2023-03-15T20:05:33.104Z,1.97
2023-03-15T20:08:02.536Z,1.50
2023-03-15T20:10:30.776Z,1.93
2023-03-15T20:12:59.387Z,2.07
2023-03-15T20:15:29.850Z,3.37
2023-03-15T20:17:57.552Z,3.97
2023-03-15T20:20:25.326Z,1.80
2023-03-15T20:22:54.457Z,2.30
2023-03-15T20:25:22.364Z,2.00
2023-03-15T20:27:50.251Z,2.43
2023-03-15T20:30:18.702Z,2.00
2023-03-15T20:32:49.164Z,1.90
2023-03-15T20:35:16.938Z,1.70
2023-03-15T20:37:44.661Z,2.10
2023-03-15T20:40:17.032Z,1.50
2023-03-15T20:42:44.765Z,1.70
2023-03-15T20:45:16.653Z,1.70
2023-03-15T20:47:44.506Z,1.63
2023-03-15T20:50:13.561Z,1.53
2023-03-15T20:52:42.721Z,2.00
2023-03-15T20:55:11.598Z,4.23
2023-03-15T20:57:42.772Z,3.70
2023-03-15T21:00:13.078Z,1.67
2023-03-15T21:02:41.490Z,2.20
2023-03-15T21:05:10.240Z,2.40
2023-03-15T21:07:38.769Z,2.10
2023-03-15T21:10:07.349Z,1.73
2023-03-15T21:12:37.882Z,2.50
2023-03-15T21:15:08.256Z,2.53
2023-03-15T21:17:38.142Z,2.43
2023-03-15T21:20:08.217Z,2.80
2023-03-15T21:22:36.260Z,2.03
2023-03-15T21:25:04.367Z,2.13
2023-03-15T21:27:32.739Z,2.47
2023-03-15T21:30:00.432Z,2.47
2023-03-15T21:32:29.635Z,2.27
2023-03-15T21:34:57.204Z,1.70
2023-03-15T21:37:33.240Z,2.70
2023-03-15T21:40:00.876Z,2.50
2023-03-15T21:42:28.909Z,2.80
2023-03-15T21:44:56.597Z,2.10
2023-03-15T21:47:24.435Z,1.70
2023-03-15T21:49:54.212Z,2.40
2023-03-15T21:52:26.197Z,2.40
2023-03-15T21:54:54.679Z,2.17
2023-03-15T21:57:23.056Z,1.80
2023-03-15T21:59:51.103Z,2.20
2023-03-15T22:02:18.984Z,2.30
2023-03-15T22:04:46.935Z,2.40
2023-03-15T22:07:19.467Z,2.63
2023-03-15T22:09:47.196Z,1.80
2023-03-15T22:12:25.560Z,2.30
2023-03-15T22:15:04.769Z,3.10
2023-03-15T22:17:34.913Z,2.20
2023-03-15T22:20:05.273Z,2.23
2023-03-15T22:22:34.406Z,2.63
2023-03-15T22:25:02.265Z,2.70
2023-03-15T22:27:29.983Z,2.60
2023-03-15T22:29:59.911Z,4.30
2023-03-15T22:32:27.634Z,2.23
2023-03-15T22:35:05.996Z,3.20
2023-03-15T22:37:36.864Z,2.80
2023-03-15T22:40:07.858Z,2.63
2023-03-15T22:42:36.182Z,3.10
2023-03-15T22:45:09.858Z,4.27
2023-03-15T22:47:40.078Z,3.55
2023-03-15T22:50:10.868Z,2.23
2023-03-15T22:52:40.096Z,3.00
2023-03-15T22:55:12.389Z,2.30
2023-03-15T22:57:47.328Z,3.10
2023-03-15T23:00:16.975Z,3.00
2023-03-15T23:02:49.320Z,2.80
2023-03-15T23:05:18.126Z,4.07
2023-03-15T23:07:50.277Z,2.33
2023-03-15T23:10:21.939Z,2.90
2023-03-15T23:12:49.796Z,3.47
2023-03-15T23:15:21.788Z,3.70
2023-03-15T23:17:51.675Z,4.03
2023-03-15T23:20:20.297Z,3.67
2023-03-15T23:22:50.310Z,2.77
2023-03-15T23:25:21.788Z,3.60
2023-03-15T23:27:51.031Z,2.90
2023-03-15T23:30:19.627Z,3.50
2023-03-15T23:32:59.742Z,4.53
2023-03-15T23:35:48.272Z,4.13
2023-03-15T23:38:17.224Z,3.70
2023-03-15T23:40:45.067Z,4.50
2023-03-15T23:43:12.563Z,3.70
2023-03-15T23:45:40.175Z,3.90
2023-03-15T23:48:07.982Z,3.50
2023-03-15T23:50:35.515Z,3.30
2023-03-15T23:53:02.987Z,3.20
2023-03-15T23:55:33.231Z,2.90
2023-03-15T23:58:01.359Z,3.80
